createdAt,value
2022-12-13T00:01:48.840Z,86.60
2022-12-13T00:04:17.697Z,87.40
2022-12-13T00:06:46.028Z,85.63
2022-12-13T00:09:15.584Z,83.43
2022-12-13T00:11:44.362Z,82.40
2022-12-13T00:14:14.120Z,82.13
2022-12-13T00:16:45.650Z,81.70
2022-12-13T00:19:15.994Z,85.60
2022-12-13T00:21:44.211Z,83.40
2022-12-13T00:24:12.673Z,81.60
2022-12-13T00:26:40.882Z,81.67
2022-12-13T00:29:09.659Z,80.77
2022-12-13T00:34:27.406Z,82.53
2022-12-13T00:36:59.151Z,79.23
2022-12-13T00:39:28.976Z,79.17
2022-12-13T00:41:58.215Z,79.00
2022-12-13T00:44:26.483Z,78.63
2022-12-13T00:46:54.755Z,78.93
2022-12-13T00:49:22.964Z,80.00
2022-12-13T00:51:52.512Z,79.20
2022-12-13T00:54:20.819Z,77.20
2022-12-13T00:56:51.268Z,75.70
2022-12-13T00:59:20.421Z,76.70
2022-12-13T01:01:48.583Z,74.77
2022-12-13T01:04:16.747Z,75.60
2022-12-13T01:06:46.563Z,75.93
2022-12-13T01:09:19.596Z,77.80
2022-12-13T01:11:49.114Z,78.23
2022-12-13T01:14:18.560Z,78.83
2022-12-13T01:16:46.894Z,78.33
2022-12-13T01:19:15.191Z,83.10
2022-12-13T01:21:43.365Z,81.07
2022-12-13T01:24:12.150Z,86.37
2022-12-13T01:26:41.584Z,84.13
2022-12-13T01:29:11.529Z,88.53
2022-12-13T01:31:41.641Z,86.50
2022-12-13T01:34:11.347Z,86.60
2022-12-13T01:36:40.236Z,85.17
2022-12-13T01:39:14.731Z,87.40
2022-12-13T01:41:45.603Z,87.80
2022-12-13T01:44:53.460Z,90.77
2022-12-13T01:47:25.855Z,90.23
2022-12-13T01:49:57.459Z,91.20
2022-12-13T01:52:31.150Z,89.80
2022-12-13T01:55:03.196Z,90.60
2022-12-13T01:57:36.163Z,91.63
2022-12-13T02:00:05.794Z,90.50
2022-12-13T02:02:33.977Z,92.83
2022-12-13T02:05:06.927Z,88.70
2022-12-13T02:07:37.796Z,90.60
2022-12-13T02:10:09.427Z,89.47
2022-12-13T02:12:40.702Z,88.03
2022-12-13T02:15:12.821Z,87.80
2022-12-13T02:18:07.055Z,87.37
2022-12-13T02:21:00.204Z,85.03
2022-12-13T02:24:09.541Z,84.27
2022-12-13T02:26:53.211Z,84.50
2022-12-13T02:29:51.379Z,85.77
2022-12-13T02:32:29.961Z,81.53
2022-12-13T02:35:04.731Z,83.33
2022-12-13T02:37:43.510Z,82.20
2022-12-13T02:40:17.732Z,82.73
2022-12-13T02:42:54.015Z,82.37
2022-12-13T02:45:26.878Z,86.00
2022-12-13T02:47:58.887Z,83.47
2022-12-13T02:50:28.767Z,83.90
2022-12-13T02:52:57.657Z,83.53
2022-12-13T02:55:28.381Z,87.37
2022-12-13T02:57:56.982Z,89.93
2022-12-13T03:00:32.241Z,92.10
2022-12-13T03:03:12.714Z,96.40
2022-12-13T03:06:07.387Z,97.43
2022-12-13T03:08:45.796Z,99.73
2022-12-13T03:11:17.421Z,100.30
2022-12-13T03:13:51.122Z,101.23
2022-12-13T03:16:30.245Z,101.07
2022-12-13T03:19:02.644Z,100.07
2022-12-13T03:21:31.667Z,102.70
2022-12-13T03:23:59.763Z,102.07
2022-12-13T03:26:28.553Z,101.17
2022-12-13T03:28:56.784Z,108.87
2022-12-13T03:31:25.012Z,103.00
2022-12-13T03:33:53.178Z,101.83
2022-12-13T03:36:23.070Z,103.00
2022-12-13T03:38:53.285Z,103.77
2022-12-13T03:41:31.347Z,99.00
2022-12-13T03:44:00.088Z,94.03
2022-12-13T03:46:28.377Z,98.63
2022-12-13T03:48:56.894Z,101.20
2022-12-13T03:51:26.445Z,100.33
2022-12-13T03:53:54.604Z,98.50
2022-12-13T03:56:22.752Z,99.53
2022-12-13T03:58:50.928Z,98.03
2022-12-13T04:01:19.569Z,96.97
2022-12-13T04:03:48.637Z,96.23
2022-12-13T04:06:21.775Z,98.20
2022-12-13T04:08:52.669Z,100.40
2022-12-13T04:11:42.758Z,95.53
2022-12-13T04:14:12.339Z,94.60
2022-12-13T04:16:50.636Z,96.20
2022-12-13T04:19:23.064Z,92.97
2022-12-13T04:21:52.078Z,93.50
2022-12-13T04:24:21.545Z,94.30
2022-12-13T04:26:59.224Z,95.90
2022-12-13T04:29:33.744Z,93.00
2022-12-13T04:32:03.949Z,94.80
2022-12-13T04:34:37.312Z,94.80
2022-12-13T04:37:06.192Z,97.00
2022-12-13T04:39:35.784Z,93.67
2022-12-13T04:42:04.705Z,96.03
2022-12-13T04:44:36.754Z,96.40
2022-12-13T04:47:05.655Z,95.70
2022-12-13T04:49:34.143Z,93.67
2022-12-13T04:52:03.179Z,93.17
2022-12-13T04:54:36.168Z,90.07
2022-12-13T04:57:08.342Z,93.83
2022-12-13T04:59:36.883Z,93.87
2022-12-13T05:02:06.060Z,93.70
2022-12-13T05:04:34.534Z,88.60
2022-12-13T05:07:03.291Z,86.00
2022-12-13T05:09:31.541Z,91.00
2022-12-13T05:12:01.553Z,89.33
2022-12-13T05:14:33.832Z,85.10
2022-12-13T05:17:02.684Z,88.63
2022-12-13T05:19:31.814Z,83.70
2022-12-13T05:22:01.961Z,85.07
2022-12-13T05:24:31.304Z,87.70
2022-12-13T05:26:59.793Z,85.47
2022-12-13T05:29:28.420Z,85.07
2022-12-13T05:31:57.977Z,86.43
2022-12-13T05:34:26.256Z,86.77
2022-12-13T05:36:54.357Z,92.93
2022-12-13T05:39:29.339Z,92.43
2022-12-13T05:42:01.422Z,92.10
2022-12-13T05:44:31.836Z,92.77
2022-12-13T05:47:01.957Z,93.60
2022-12-13T05:49:31.302Z,89.37
2022-12-13T05:51:59.626Z,88.70
2022-12-13T05:54:27.902Z,84.40
2022-12-13T05:56:56.108Z,86.10
2022-12-13T05:59:24.399Z,86.00
2022-12-13T06:01:52.759Z,89.10
2022-12-13T06:04:23.487Z,89.50
2022-12-13T06:06:52.602Z,88.87
2022-12-13T06:09:21.665Z,87.87
2022-12-13T06:11:50.195Z,85.00
2022-12-13T06:14:22.223Z,80.57
2022-12-13T06:16:52.425Z,81.67
2022-12-13T06:19:22.325Z,86.13
2022-12-13T06:21:50.675Z,92.03
2022-12-13T06:24:20.911Z,92.43
2022-12-13T06:26:49.744Z,90.10
2022-12-13T06:29:23.884Z,92.07
2022-12-13T06:31:55.059Z,91.70
2022-12-13T06:34:33.886Z,85.80
2022-12-13T06:37:02.243Z,90.60
2022-12-13T06:39:32.448Z,89.17
2022-12-13T06:42:02.746Z,89.53
2022-12-13T06:44:30.983Z,82.13
2022-12-13T06:47:11.292Z,80.73
2022-12-13T06:49:44.442Z,82.43
2022-12-13T06:52:14.386Z,82.00
2022-12-13T06:54:43.342Z,79.90
2022-12-13T06:57:12.306Z,80.07
2022-12-13T06:59:41.227Z,87.27
2022-12-13T07:02:15.403Z,85.77
2022-12-13T07:04:55.772Z,85.90
2022-12-13T07:07:25.049Z,89.70
2022-12-13T07:09:53.568Z,90.93
2022-12-13T07:12:23.385Z,94.50
2022-12-13T07:14:52.199Z,93.07
2022-12-13T07:17:32.481Z,94.07
2022-12-13T07:20:08.113Z,91.13
2022-12-13T07:22:44.810Z,91.80
2022-12-13T07:25:27.092Z,92.57
2022-12-13T07:28:01.672Z,92.20
2022-12-13T07:30:31.157Z,89.47
2022-12-13T07:32:59.426Z,91.37
2022-12-13T07:35:28.905Z,90.80
2022-12-13T07:37:57.207Z,92.40
2022-12-13T07:40:25.885Z,84.07
2022-12-13T07:42:54.771Z,84.23
2022-12-13T07:45:24.479Z,87.20
2022-12-13T07:47:52.653Z,83.57
2022-12-13T07:50:24.924Z,83.90
2022-12-13T07:52:55.154Z,83.43
2022-12-13T07:55:33.417Z,83.67
2022-12-13T07:58:09.705Z,83.53
2022-12-13T08:00:38.200Z,84.80
2022-12-13T08:03:06.912Z,84.60
2022-12-13T08:05:38.919Z,86.70
2022-12-13T08:08:10.273Z,87.40
2022-12-13T08:10:38.444Z,86.43
2022-12-13T08:13:07.314Z,87.70
2022-12-13T08:15:35.447Z,87.20
2022-12-13T08:18:04.110Z,86.77
2022-12-13T08:20:32.273Z,86.23
2022-12-13T08:23:01.995Z,83.83
2022-12-13T08:25:33.438Z,86.60
2022-12-13T08:28:02.629Z,83.70
2022-12-13T08:30:33.049Z,83.17
2022-12-13T08:33:05.345Z,81.33
2022-12-13T08:35:34.773Z,81.20
2022-12-13T08:38:03.827Z,79.57
2022-12-13T08:40:34.931Z,82.87
2022-12-13T08:43:03.918Z,86.00
2022-12-13T08:45:34.264Z,84.30
2022-12-13T08:48:03.310Z,82.33
2022-12-13T08:50:31.906Z,83.43
2022-12-13T08:53:00.087Z,88.87
2022-12-13T08:55:32.129Z,83.37
2022-12-13T08:58:07.000Z,86.73
2022-12-13T09:00:35.728Z,81.90
2022-12-13T09:03:04.603Z,85.60
2022-12-13T09:05:35.172Z,83.20
2022-12-13T09:08:13.229Z,80.93
2022-12-13T09:10:59.380Z,79.67
2022-12-13T09:13:31.382Z,78.93
2022-12-13T09:16:01.577Z,82.07
2022-12-13T09:18:36.591Z,88.90
2022-12-13T09:21:10.685Z,80.03
2022-12-13T09:23:45.633Z,84.70
2022-12-13T09:26:38.298Z,82.77
2022-12-13T09:29:10.569Z,83.53
2022-12-13T09:31:40.629Z,81.27
2022-12-13T09:34:09.591Z,83.73
2022-12-13T09:36:37.768Z,85.70
2022-12-13T09:39:05.927Z,84.83
2022-12-13T09:41:40.564Z,82.13
2022-12-13T09:44:31.603Z,79.30
2022-12-13T09:47:03.234Z,80.50
2022-12-13T09:49:35.723Z,82.17
2022-12-13T09:52:11.026Z,87.20
2022-12-13T09:54:48.394Z,86.47
2022-12-13T09:57:31.460Z,84.77
2022-12-13T10:00:05.414Z,80.63
2022-12-13T10:02:38.140Z,79.60
2022-12-13T10:05:21.837Z,81.23
2022-12-13T10:07:55.442Z,81.10
2022-12-13T10:10:23.945Z,88.37
2022-12-13T10:12:59.356Z,87.60
2022-12-13T10:15:31.621Z,91.30
2022-12-13T10:18:00.772Z,89.17
2022-12-13T10:20:30.806Z,90.17
2022-12-13T10:23:31.303Z,91.30
2022-12-13T10:25:51.709Z,89.13
2022-12-13T10:28:27.187Z,90.37
2022-12-13T10:30:58.191Z,95.60
2022-12-13T10:33:29.821Z,93.53
2022-12-13T10:36:09.964Z,94.63
2022-12-13T10:38:40.039Z,96.80
2022-12-13T10:41:29.316Z,98.13
2022-12-13T10:44:24.203Z,96.20
2022-12-13T10:47:03.410Z,91.10
2022-12-13T10:49:39.524Z,90.93
2022-12-13T10:52:31.663Z,93.87
2022-12-13T10:55:04.582Z,92.60
2022-12-13T10:57:53.630Z,93.30
2022-12-13T11:00:40.739Z,93.20
2022-12-13T11:03:14.895Z,93.23
2022-12-13T11:05:44.229Z,95.43
2022-12-13T11:08:17.660Z,95.33
2022-12-13T11:10:46.081Z,92.90
2022-12-13T11:13:29.326Z,92.40
2022-12-13T11:15:57.920Z,95.93
2022-12-13T11:18:30.500Z,95.97
2022-12-13T11:21:01.572Z,97.57
2022-12-13T11:23:33.910Z,98.40
2022-12-13T11:26:07.026Z,98.20
2022-12-13T11:28:52.266Z,89.43
2022-12-13T11:31:29.492Z,89.73
2022-12-13T11:34:05.656Z,99.33
2022-12-13T11:36:43.624Z,96.73
2022-12-13T11:39:20.761Z,91.13
2022-12-13T11:41:55.393Z,90.57
2022-12-13T11:44:34.457Z,87.13
2022-12-13T11:47:03.026Z,89.83
2022-12-13T11:49:39.399Z,87.00
2022-12-13T11:52:15.298Z,82.47
2022-12-13T11:54:53.012Z,82.63
2022-12-13T11:57:34.239Z,81.03
2022-12-13T12:00:13.306Z,76.10
2022-12-13T12:02:45.729Z,71.17
2022-12-13T12:05:28.415Z,67.17
2022-12-13T12:11:01.082Z,62.47
2022-12-13T12:13:33.533Z,57.37
2022-12-13T12:16:11.681Z,53.00
2022-12-13T12:18:40.024Z,52.83
2022-12-13T12:21:20.991Z,49.13
2022-12-13T12:23:59.297Z,50.70
2022-12-13T12:26:35.290Z,48.50
2022-12-13T12:29:24.650Z,49.87
2022-12-13T12:32:04.746Z,49.07
2022-12-13T12:34:41.643Z,48.70
2022-12-13T12:37:20.527Z,44.43
2022-12-13T12:40:02.385Z,44.47
2022-12-13T12:43:14.091Z,39.10
2022-12-13T12:45:58.021Z,38.23
2022-12-13T12:49:03.214Z,34.87
2022-12-13T12:51:46.597Z,34.20
2022-12-13T12:54:35.805Z,34.20
2022-12-13T12:57:14.348Z,31.90
2022-12-13T12:59:59.810Z,34.67
2022-12-13T13:02:37.518Z,33.00
2022-12-13T13:05:16.466Z,30.90
2022-12-13T13:07:51.487Z,33.60
2022-12-13T13:10:26.234Z,30.77
2022-12-13T13:13:12.577Z,28.93
2022-12-13T13:15:58.651Z,28.73
2022-12-13T13:18:47.812Z,30.83
2022-12-13T13:21:43.956Z,31.23
2022-12-13T13:24:25.573Z,31.70
2022-12-13T13:26:56.969Z,34.23
2022-12-13T13:29:33.367Z,29.63
2022-12-13T13:32:05.184Z,31.80
2022-12-13T13:34:36.017Z,33.53
2022-12-13T13:37:05.169Z,33.03
2022-12-13T13:40:01.571Z,34.33
2022-12-13T13:42:32.378Z,31.43
2022-12-13T13:45:20.374Z,31.10
2022-12-13T13:48:04.802Z,31.67
2022-12-13T13:51:31.165Z,30.90
2022-12-13T13:54:29.516Z,34.20
2022-12-13T13:57:45.572Z,31.73
2022-12-13T14:00:21.080Z,34.60
2022-12-13T14:03:29.240Z,30.43
2022-12-13T14:06:30.629Z,29.83
2022-12-13T14:09:16.953Z,29.07
2022-12-13T14:12:14.440Z,28.77
2022-12-13T14:15:18.317Z,29.23
2022-12-13T14:18:29.229Z,31.40
2022-12-13T14:21:08.042Z,29.83
2022-12-13T14:23:54.716Z,29.00
2022-12-13T14:26:51.317Z,28.80
2022-12-13T14:29:25.315Z,30.77
2022-12-13T14:31:53.406Z,28.60
2022-12-13T14:34:25.307Z,28.93
2022-12-13T14:36:59.944Z,28.73
2022-12-13T14:39:29.559Z,30.20
2022-12-13T14:41:59.720Z,29.20
2022-12-13T14:44:29.269Z,30.57
2022-12-13T14:46:59.902Z,30.77
2022-12-13T14:49:31.757Z,28.23
2022-12-13T14:52:06.178Z,30.00
2022-12-13T14:54:45.341Z,30.73
2022-12-13T14:57:17.214Z,29.77
2022-12-13T14:59:50.499Z,30.63
2022-12-13T15:02:30.650Z,30.63
2022-12-13T15:05:01.341Z,31.53
2022-12-13T15:07:34.318Z,31.00
2022-12-13T15:10:05.144Z,31.50
2022-12-13T15:12:33.507Z,30.83
2022-12-13T15:15:04.105Z,30.53
2022-12-13T15:17:35.072Z,32.03
2022-12-13T15:20:21.602Z,31.47
2022-12-13T15:22:58.558Z,34.07
2022-12-13T15:25:26.810Z,31.87
2022-12-13T15:27:55.975Z,32.00
2022-12-13T15:30:31.192Z,31.97
2022-12-13T15:33:07.862Z,30.47
2022-12-13T15:35:37.937Z,31.47
2022-12-13T15:38:13.999Z,31.70
2022-12-13T15:40:58.168Z,32.10
2022-12-13T15:43:34.186Z,32.30
2022-12-13T15:46:02.849Z,32.10
2022-12-13T15:48:34.269Z,32.27
2022-12-13T15:51:11.006Z,32.53
2022-12-13T15:53:42.024Z,32.80
2022-12-13T15:56:31.397Z,34.27
2022-12-13T15:59:01.217Z,36.00
2022-12-13T16:01:30.965Z,35.20
2022-12-13T16:03:59.196Z,34.40
2022-12-13T16:06:28.131Z,34.07
2022-12-13T16:09:00.931Z,36.03
2022-12-13T16:11:32.144Z,34.70
2022-12-13T16:14:37.976Z,35.90
2022-12-13T16:17:11.517Z,32.63
2022-12-13T16:19:39.872Z,35.70
2022-12-13T16:22:08.417Z,33.07
2022-12-13T16:24:38.758Z,35.70
2022-12-13T16:27:08.848Z,35.80
2022-12-13T16:29:37.331Z,34.13
2022-12-13T16:32:08.243Z,38.03
2022-12-13T16:34:37.312Z,34.60
2022-12-13T16:37:08.450Z,36.03
2022-12-13T16:39:38.428Z,32.70
2022-12-13T16:42:06.622Z,35.10
2022-12-13T16:44:37.463Z,36.40
2022-12-13T16:47:12.517Z,38.28
2022-12-13T16:49:46.979Z,39.20
2022-12-13T16:52:15.045Z,35.67
2022-12-13T16:54:44.565Z,37.20
2022-12-13T16:57:12.771Z,33.17
2022-12-13T16:59:41.001Z,30.93
2022-12-13T17:02:18.541Z,31.27
2022-12-13T17:04:46.794Z,31.30
2022-12-13T17:07:15.915Z,30.20
2022-12-13T17:09:45.414Z,30.20
2022-12-13T17:12:13.503Z,29.93
2022-12-13T17:14:41.650Z,34.57
2022-12-13T17:17:12.970Z,38.30
2022-12-13T17:19:45.312Z,32.10
2022-12-13T17:22:13.364Z,31.30
2022-12-13T17:24:41.461Z,31.20
2022-12-13T17:27:10.931Z,31.80
2022-12-13T17:29:39.074Z,31.70
2022-12-13T17:32:07.285Z,31.00
2022-12-13T17:34:35.483Z,30.40
2022-12-13T17:37:10.037Z,31.00
2022-12-13T17:39:38.631Z,34.03
2022-12-13T17:42:07.158Z,30.70
2022-12-13T17:44:37.001Z,31.23
2022-12-13T17:47:05.601Z,30.10
2022-12-13T17:49:33.664Z,31.37
2022-12-13T17:52:01.874Z,32.80
2022-12-13T17:54:30.071Z,30.27
2022-12-13T17:56:58.165Z,29.17
2022-12-13T17:59:27.196Z,29.70
2022-12-13T18:01:57.203Z,29.90
2022-12-13T18:04:25.374Z,29.90
2022-12-13T18:06:53.452Z,28.33
2022-12-13T18:09:21.523Z,25.93
2022-12-13T18:11:49.662Z,26.40
2022-12-13T18:14:17.912Z,26.93
2022-12-13T18:16:46.783Z,25.77
2022-12-13T18:19:16.611Z,25.13
2022-12-13T18:21:44.911Z,24.03
2022-12-13T18:24:13.282Z,24.10
2022-12-13T18:26:41.560Z,24.00
2022-12-13T18:29:09.990Z,24.33
2022-12-13T18:31:38.200Z,24.67
2022-12-13T18:34:06.596Z,26.57
2022-12-13T18:36:36.600Z,27.70
2022-12-13T18:39:05.475Z,25.37
2022-12-13T18:41:34.137Z,25.63
2022-12-13T18:44:03.837Z,24.57
2022-12-13T18:46:34.567Z,24.30
2022-12-13T18:49:03.031Z,25.90
2022-12-13T18:51:31.211Z,27.70
2022-12-13T18:54:00.846Z,25.50
2022-12-13T18:56:29.578Z,26.27
2022-12-13T18:58:59.190Z,26.00
2022-12-13T19:01:28.593Z,27.03
2022-12-13T19:03:56.984Z,26.87
2022-12-13T19:06:27.325Z,26.50
2022-12-13T19:08:57.597Z,28.00
2022-12-13T19:11:28.905Z,26.27
2022-12-13T19:13:57.850Z,28.33
2022-12-13T19:16:27.469Z,31.77
2022-12-13T19:18:55.998Z,27.73
2022-12-13T19:21:24.834Z,27.10
2022-12-13T19:23:57.698Z,25.00
2022-12-13T19:26:29.275Z,24.13
2022-12-13T19:28:58.446Z,24.37
2022-12-13T19:31:31.812Z,24.27
2022-12-13T19:34:02.298Z,24.97
2022-12-13T19:36:31.531Z,24.47
2022-12-13T19:38:59.646Z,27.80
2022-12-13T19:41:29.583Z,26.10
2022-12-13T19:43:57.783Z,25.33
2022-12-13T19:46:26.304Z,26.50
2022-12-13T19:48:54.821Z,25.70
2022-12-13T19:51:24.248Z,25.83
2022-12-13T19:53:52.800Z,26.00
2022-12-13T19:56:22.729Z,25.90
2022-12-13T19:58:52.458Z,26.33
2022-12-13T20:01:20.689Z,25.27
2022-12-13T20:03:49.333Z,26.63
2022-12-13T20:06:20.836Z,25.50
2022-12-13T20:08:49.620Z,27.30
2022-12-13T20:11:20.219Z,27.27
2022-12-13T20:13:49.739Z,28.77
2022-12-13T20:16:22.042Z,27.33
2022-12-13T20:18:54.960Z,27.87
2022-12-13T20:21:23.424Z,28.10
2022-12-13T20:23:51.823Z,27.23
2022-12-13T20:26:24.133Z,27.40
2022-12-13T20:28:52.684Z,27.50
2022-12-13T20:31:24.877Z,31.40
2022-12-13T20:33:56.792Z,28.90
2022-12-13T20:36:26.858Z,28.17
2022-12-13T20:38:56.981Z,28.33
2022-12-13T20:41:26.498Z,28.90
2022-12-13T20:43:55.456Z,28.80
2022-12-13T20:46:26.554Z,28.37
2022-12-13T20:48:56.167Z,27.57
2022-12-13T20:51:27.904Z,27.90
2022-12-13T20:53:57.385Z,26.83
2022-12-13T20:56:27.341Z,28.33
2022-12-13T20:58:56.407Z,29.67
2022-12-13T21:01:27.471Z,27.90
2022-12-13T21:03:56.720Z,26.90
2022-12-13T21:06:25.099Z,29.30
2022-12-13T21:08:54.030Z,27.50
2022-12-13T21:11:26.520Z,28.07
2022-12-13T21:14:00.018Z,27.77
2022-12-13T21:16:35.068Z,24.73
2022-12-13T21:19:03.216Z,23.70
2022-12-13T21:21:31.564Z,24.40
2022-12-13T21:24:00.643Z,27.73
2022-12-13T21:26:35.026Z,23.73
2022-12-13T21:29:06.492Z,23.30
2022-12-13T21:31:37.397Z,25.05
2022-12-13T21:34:06.821Z,23.80
2022-12-13T21:36:37.181Z,21.97
2022-12-13T21:39:08.274Z,22.07
2022-12-13T21:41:36.524Z,21.63
2022-12-13T21:44:04.698Z,22.50
2022-12-13T21:47:10.063Z,21.33
2022-12-13T21:49:23.012Z,21.50
2022-12-13T21:51:51.082Z,21.00
2022-12-13T21:54:19.269Z,24.37
2022-12-13T21:57:07.343Z,23.07
2022-12-13T21:59:35.495Z,22.40
2022-12-13T22:02:14.901Z,21.83
2022-12-13T22:04:46.199Z,22.07
2022-12-13T22:07:16.087Z,22.03
2022-12-13T22:09:44.652Z,22.77
2022-12-13T22:12:20.536Z,21.40
2022-12-13T22:14:49.225Z,22.97
2022-12-13T22:17:18.587Z,24.00
2022-12-13T22:19:48.811Z,23.73
2022-12-13T22:22:18.140Z,22.17
2022-12-13T22:24:52.923Z,22.87
2022-12-13T22:27:23.735Z,22.47
2022-12-13T22:29:52.498Z,22.57
2022-12-13T22:32:20.803Z,23.20
2022-12-13T22:34:50.431Z,24.37
2022-12-13T22:37:18.737Z,22.17
2022-12-13T22:39:47.039Z,23.80
2022-12-13T22:42:15.486Z,22.90
2022-12-13T22:44:43.762Z,21.80
2022-12-13T22:47:11.848Z,22.87
2022-12-13T22:49:40.059Z,24.50
2022-12-13T22:52:09.630Z,22.80
2022-12-13T22:54:37.728Z,23.27
2022-12-13T22:57:05.883Z,22.27
2022-12-13T22:59:34.085Z,22.00
2022-12-13T23:02:03.922Z,23.00
2022-12-13T23:04:32.793Z,22.93
2022-12-13T23:07:01.185Z,22.03
2022-12-13T23:09:30.650Z,22.27
2022-12-13T23:12:16.573Z,22.23
2022-12-13T23:14:44.725Z,22.30
2022-12-13T23:17:13.370Z,22.30
2022-12-13T23:19:49.724Z,21.77
2022-12-13T23:22:20.140Z,21.20
2022-12-13T23:24:50.128Z,20.97
2022-12-13T23:27:18.378Z,21.80
2022-12-13T23:29:46.624Z,21.63
2022-12-13T23:32:15.424Z,20.67
2022-12-13T23:34:43.567Z,22.60
2022-12-13T23:37:11.771Z,21.37
2022-12-13T23:39:39.969Z,20.57
2022-12-13T23:42:09.380Z,21.43
2022-12-13T23:44:37.704Z,20.17
2022-12-13T23:47:05.896Z,21.07
2022-12-13T23:49:33.997Z,21.33
2022-12-13T23:52:02.070Z,20.50
2022-12-13T23:54:30.137Z,21.30
2022-12-13T23:56:58.221Z,20.57
2022-12-13T23:59:28.737Z,22.93
